createdAt,value
2023-04-18T00:11:53.149Z,93.90
2023-04-18T00:29:25.633Z,93.90
2023-04-18T00:43:58.907Z,94.10
2023-04-18T01:21:06.716Z,94.40
2023-04-18T01:29:55.726Z,94.40
2023-04-18T01:32:38.944Z,94.40
2023-04-18T01:35:13.335Z,94.40
2023-04-18T01:37:41.761Z,94.50
2023-04-18T01:41:18.811Z,94.50
2023-04-18T01:44:47.907Z,94.50
2023-04-18T02:02:03.980Z,94.60
2023-04-18T02:15:00.527Z,94.70
2023-04-18T02:18:52.824Z,94.70
2023-04-18T02:29:54.285Z,94.80
2023-04-18T02:36:18.278Z,94.80
2023-04-18T02:50:59.808Z,94.90
2023-04-18T02:53:30.756Z,94.90
2023-04-18T02:55:58.176Z,95.00
2023-04-18T02:58:25.759Z,95.00
2023-04-18T03:00:56.437Z,95.00
2023-04-18T03:03:24.246Z,95.00
2023-04-18T03:05:58.963Z,95.00
2023-04-18T03:08:38.072Z,95.30
2023-04-18T03:11:16.375Z,95.00
2023-04-18T03:13:54.148Z,95.10
2023-04-18T03:16:30.006Z,95.10
2023-04-18T03:19:02.912Z,95.10
2023-04-18T03:21:33.100Z,95.10
2023-04-18T03:24:02.764Z,95.10
2023-04-18T03:26:33.427Z,95.10
2023-04-18T03:29:23.457Z,95.20
2023-04-18T03:32:41.756Z,95.10
2023-04-18T03:35:57.146Z,95.20
2023-04-18T04:48:36.116Z,95.30
2023-04-18T04:51:49.684Z,95.30
2023-04-18T04:54:19.597Z,95.40
2023-04-18T04:57:03.981Z,95.40
2023-04-18T04:59:34.289Z,95.40
2023-04-18T05:05:16.981Z,95.50
2023-04-18T05:08:34.462Z,95.60
2023-04-18T05:11:33.207Z,95.60
2023-04-18T05:14:04.750Z,95.60
2023-04-18T05:16:31.963Z,95.60
2023-04-18T05:19:16.932Z,95.60
2023-04-18T05:36:20.789Z,95.60
2023-04-18T05:40:24.746Z,95.70
2023-04-18T05:43:06.865Z,95.70
2023-04-18T05:49:12.387Z,95.70
2023-04-18T05:51:47.725Z,95.70
2023-04-18T06:07:30.780Z,95.90
2023-04-18T06:10:15.147Z,95.80
2023-04-18T06:13:25.254Z,95.80
2023-04-18T06:16:17.397Z,95.80
2023-04-18T06:24:17.581Z,95.80
2023-04-18T06:26:44.752Z,95.80
2023-04-18T06:29:12.236Z,95.90
2023-04-18T06:31:39.410Z,95.90
2023-04-18T06:34:24.032Z,95.90
2023-04-18T06:41:42.610Z,95.80
2023-04-18T06:46:48.812Z,95.70
2023-04-18T06:49:38.124Z,96.00
2023-04-18T06:55:33.168Z,95.70
2023-04-18T06:58:53.243Z,95.70
2023-04-18T07:01:29.639Z,95.70
2023-04-18T07:04:50.295Z,95.70
2023-04-18T07:07:20.088Z,95.70
2023-04-18T07:09:55.554Z,95.70
2023-04-18T07:12:25.822Z,95.70
2023-04-18T07:15:44.642Z,95.70
2023-04-18T07:18:13.257Z,95.60
2023-04-18T07:20:45.714Z,95.60
2023-04-18T07:23:22.073Z,95.60
2023-04-18T07:25:50.106Z,95.60
2023-04-18T07:28:17.071Z,95.60
2023-04-18T07:30:45.173Z,95.60
2023-04-18T07:33:12.556Z,95.50
2023-04-18T07:35:40.577Z,95.40
2023-04-18T07:38:09.982Z,95.30
2023-04-18T07:40:36.949Z,95.30
2023-04-18T07:43:03.886Z,95.30
2023-04-18T07:45:30.950Z,95.20
2023-04-18T07:47:57.944Z,95.20
2023-04-18T07:50:25.020Z,95.10
2023-04-18T07:52:52.008Z,95.00
2023-04-18T07:55:19.102Z,94.90
2023-04-18T07:57:50.767Z,94.80
2023-04-18T08:00:18.624Z,94.80
2023-04-18T08:02:46.065Z,94.70
2023-04-18T08:05:13.238Z,94.60
2023-04-18T08:07:40.598Z,94.60
2023-04-18T08:10:08.156Z,94.60
2023-04-18T08:12:36.660Z,94.50
2023-04-18T08:15:07.013Z,94.40
2023-04-18T08:17:34.117Z,94.70
2023-04-18T08:20:05.171Z,94.30
2023-04-18T08:22:32.148Z,94.10
2023-04-18T08:25:05.071Z,94.30
2023-04-18T08:27:32.820Z,93.90
2023-04-18T08:30:00.862Z,93.90
2023-04-18T08:32:29.662Z,93.70
2023-04-18T08:34:59.944Z,93.60
2023-04-18T08:37:29.852Z,93.40
2023-04-18T08:39:57.153Z,93.20
2023-04-18T08:42:30.429Z,93.10
2023-04-18T08:45:00.224Z,93.00
2023-04-18T08:47:29.967Z,92.80
2023-04-18T08:49:58.617Z,92.70
2023-04-18T08:52:27.267Z,92.60
2023-04-18T08:54:54.592Z,92.70
2023-04-18T08:57:27.092Z,92.30
2023-04-18T08:59:55.493Z,92.20
2023-04-18T09:02:23.659Z,92.10
2023-04-18T09:04:53.896Z,92.00
2023-04-18T09:07:26.889Z,92.00
2023-04-18T09:09:54.439Z,91.60
2023-04-18T09:12:24.726Z,91.60
2023-04-18T09:14:55.484Z,91.40
2023-04-18T09:17:42.729Z,91.20
2023-04-18T09:20:13.258Z,90.90
2023-04-18T09:22:48.958Z,90.90
2023-04-18T09:25:40.821Z,90.60
2023-04-18T09:28:30.079Z,90.40
2023-04-18T09:30:58.696Z,90.30
2023-04-18T09:33:28.630Z,90.40
2023-04-18T09:35:57.257Z,90.40
2023-04-18T09:38:40.232Z,90.40
2023-04-18T09:41:10.812Z,90.30
2023-04-18T09:43:37.944Z,90.40
2023-04-18T09:46:07.948Z,90.30
2023-04-18T09:48:35.060Z,90.40
2023-04-18T09:51:05.789Z,90.40
2023-04-18T09:53:33.272Z,90.40
2023-04-18T09:56:00.221Z,90.40
2023-04-18T09:58:27.286Z,90.60
2023-04-18T10:00:54.875Z,90.30
2023-04-18T10:03:23.721Z,90.30
2023-04-18T10:05:50.936Z,90.30
2023-04-18T10:08:17.874Z,90.30
2023-04-18T10:10:44.946Z,90.40
2023-04-18T10:13:13.474Z,90.40
2023-04-18T10:15:42.396Z,90.30
2023-04-18T10:18:14.704Z,90.20
2023-04-18T10:20:42.023Z,90.00
2023-04-18T10:23:35.116Z,90.00
2023-04-18T10:26:05.678Z,89.80
2023-04-18T10:28:57.989Z,90.00
2023-04-18T10:31:28.746Z,90.00
2023-04-18T10:36:29.033Z,90.20
2023-04-18T10:39:00.534Z,90.10
2023-04-18T10:41:28.043Z,90.10
2023-04-18T10:44:09.937Z,90.10
2023-04-18T10:46:38.378Z,89.90
2023-04-18T10:49:27.327Z,90.00
2023-04-18T10:51:59.790Z,90.00
2023-04-18T10:54:38.172Z,90.00
2023-04-18T10:57:05.752Z,90.00
2023-04-18T10:59:34.103Z,90.00
2023-04-18T11:02:11.985Z,90.00
2023-04-18T11:04:39.579Z,90.00
2023-04-18T11:07:06.556Z,90.00
2023-04-18T11:09:33.645Z,90.00
2023-04-18T11:12:08.416Z,90.10
2023-04-18T11:14:48.798Z,90.10
2023-04-18T11:17:24.135Z,90.10
2023-04-18T11:19:52.312Z,90.10
2023-04-18T11:22:19.540Z,90.10
2023-04-18T11:24:46.618Z,90.10
2023-04-18T11:27:14.552Z,90.10
2023-04-18T11:29:42.817Z,90.20
2023-04-18T11:32:09.965Z,90.20
2023-04-18T11:34:37.341Z,90.30
2023-04-18T11:37:11.955Z,90.40
2023-04-18T11:39:43.816Z,90.20
2023-04-18T11:42:12.506Z,89.80
2023-04-18T11:44:40.143Z,89.30
2023-04-18T11:47:27.510Z,89.10
2023-04-18T11:50:11.540Z,88.80
2023-04-18T11:52:40.299Z,88.70
2023-04-18T11:55:14.705Z,88.70
2023-04-18T11:57:42.082Z,88.70
2023-04-18T12:00:12.864Z,88.90
2023-04-18T12:02:44.186Z,89.00
2023-04-18T12:05:12.448Z,89.00
2023-04-18T12:07:41.676Z,89.00
2023-04-18T12:10:10.357Z,89.10
2023-04-18T12:12:39.465Z,89.10
2023-04-18T12:15:10.627Z,89.10
2023-04-18T12:17:38.408Z,88.90
2023-04-18T12:20:06.648Z,88.80
2023-04-18T12:22:50.505Z,88.70
2023-04-18T12:25:27.596Z,88.50
2023-04-18T12:28:02.404Z,88.70
2023-04-18T12:30:35.972Z,88.80
2023-04-18T12:33:05.086Z,88.70
2023-04-18T12:35:32.763Z,88.70
2023-04-18T12:38:00.959Z,88.50
2023-04-18T12:40:28.736Z,88.80
2023-04-18T12:42:55.828Z,88.80
2023-04-18T12:45:24.398Z,88.70
2023-04-18T12:47:51.917Z,88.50
2023-04-18T12:50:23.769Z,88.30
2023-04-18T12:52:52.436Z,88.10
2023-04-18T12:55:19.455Z,88.00
2023-04-18T12:57:46.546Z,88.10
2023-04-18T13:00:14.507Z,88.20
2023-04-18T13:02:43.530Z,88.30
2023-04-18T13:05:16.084Z,88.40
2023-04-18T13:07:43.385Z,88.40
2023-04-18T13:10:11.922Z,88.40
2023-04-18T13:12:41.796Z,89.00
2023-04-18T13:15:09.320Z,88.40
2023-04-18T13:17:39.584Z,88.60
2023-04-18T13:20:08.871Z,88.70
2023-04-18T13:22:40.056Z,88.50
2023-04-18T13:25:08.535Z,88.50
2023-04-18T13:27:35.369Z,88.50
2023-04-18T13:30:02.917Z,88.50
2023-04-18T13:32:30.267Z,88.50
2023-04-18T13:34:59.568Z,88.40
2023-04-18T13:37:26.964Z,88.40
2023-04-18T13:39:54.775Z,88.30
2023-04-18T13:42:21.750Z,88.30
2023-04-18T13:44:49.223Z,88.40
2023-04-18T13:47:23.490Z,88.30
2023-04-18T13:49:50.978Z,88.30
2023-04-18T13:52:19.581Z,88.40
2023-04-18T13:54:46.778Z,88.30
2023-04-18T13:57:20.450Z,88.50
2023-04-18T13:59:48.730Z,88.50
2023-04-18T14:02:16.177Z,88.80
2023-04-18T14:07:25.244Z,88.00
2023-04-18T14:09:53.839Z,87.80
2023-04-18T14:12:21.932Z,87.60
2023-04-18T14:14:48.799Z,87.50
2023-04-18T14:17:19.262Z,87.50
2023-04-18T14:19:46.367Z,87.60
2023-04-18T14:22:13.905Z,87.60
2023-04-18T14:24:41.379Z,87.70
2023-04-18T14:27:09.704Z,87.70
2023-04-18T14:29:36.728Z,87.60
2023-04-18T14:32:03.945Z,87.60
2023-04-18T14:34:33.143Z,87.80
2023-04-18T14:37:04.328Z,87.70
2023-04-18T14:39:33.813Z,87.50
2023-04-18T14:42:01.819Z,87.50
2023-04-18T14:44:29.447Z,87.40
2023-04-18T14:46:58.263Z,87.60
2023-04-18T14:49:25.450Z,87.70
2023-04-18T14:52:01.743Z,87.60
2023-04-18T14:54:29.985Z,87.70
2023-04-18T14:57:02.560Z,87.80
2023-04-18T14:59:31.666Z,87.70
2023-04-18T15:01:58.721Z,87.80
2023-04-18T15:04:25.992Z,87.80
2023-04-18T15:06:53.124Z,87.60
2023-04-18T15:09:20.398Z,87.60
2023-04-18T15:11:47.306Z,87.60
2023-04-18T15:14:15.950Z,87.70
2023-04-18T15:16:48.221Z,87.50
2023-04-18T15:19:15.493Z,87.60
2023-04-18T15:21:42.746Z,87.60
2023-04-18T15:24:09.746Z,87.50
2023-04-18T15:26:38.242Z,87.50
2023-04-18T15:29:06.142Z,87.50
2023-04-18T15:31:41.470Z,87.40
2023-04-18T15:34:08.749Z,87.30
2023-04-18T15:36:36.292Z,87.30
2023-04-18T15:39:09.684Z,87.40
2023-04-18T15:41:37.422Z,87.50
2023-04-18T15:44:06.060Z,87.60
2023-04-18T15:46:37.564Z,87.70
2023-04-18T15:49:21.828Z,87.70
2023-04-18T15:51:49.562Z,87.80
2023-04-18T15:54:22.947Z,88.00
2023-04-18T15:56:51.838Z,88.10
2023-04-18T15:59:21.580Z,88.20
2023-04-18T16:01:48.789Z,88.30
2023-04-18T16:04:32.502Z,88.30
2023-04-18T16:07:00.023Z,88.20
2023-04-18T16:09:27.805Z,88.40
2023-04-18T16:11:55.109Z,88.40
2023-04-18T16:14:26.408Z,88.30
2023-04-18T16:16:55.298Z,88.30
2023-04-18T16:19:23.523Z,88.40
2023-04-18T16:24:41.513Z,88.30
2023-04-18T16:27:09.486Z,88.30
2023-04-18T16:29:39.893Z,88.30
2023-04-18T16:32:08.468Z,88.70
2023-04-18T16:37:19.862Z,88.20
2023-04-18T16:39:47.298Z,88.50
2023-04-18T16:42:15.874Z,88.60
2023-04-18T16:44:47.518Z,88.80
2023-04-18T16:47:16.663Z,88.80
2023-04-18T16:49:46.860Z,89.00
2023-04-18T16:52:19.773Z,89.10
2023-04-18T16:54:47.741Z,89.10
2023-04-18T16:57:21.439Z,89.20
2023-04-18T16:59:59.174Z,89.20
2023-04-18T17:02:27.295Z,89.30
2023-04-18T17:07:35.768Z,89.40
2023-04-18T17:10:03.350Z,89.50
2023-04-18T17:12:30.584Z,89.70
2023-04-18T17:15:05.361Z,89.70
2023-04-18T17:17:35.663Z,89.60
2023-04-18T17:20:05.218Z,89.60
2023-04-18T17:22:32.715Z,89.60
2023-04-18T17:25:05.435Z,89.70
2023-04-18T17:27:34.326Z,89.70
2023-04-18T17:30:04.213Z,89.60
2023-04-18T17:32:44.728Z,89.60
2023-04-18T17:35:14.924Z,89.50
2023-04-18T17:37:54.800Z,89.60
2023-04-18T17:40:32.193Z,89.70
2023-04-18T17:43:09.275Z,89.60
2023-04-18T17:45:42.223Z,89.60
2023-04-18T17:48:12.270Z,89.60
2023-04-18T17:50:43.152Z,89.70
2023-04-18T17:53:12.360Z,89.80
2023-04-18T17:56:29.059Z,89.80
2023-04-18T17:58:56.762Z,89.90
2023-04-18T18:01:36.727Z,90.00
2023-04-18T18:04:08.528Z,90.00
2023-04-18T18:06:39.666Z,90.00
2023-04-18T18:09:16.738Z,90.00
2023-04-18T18:11:44.811Z,89.80
2023-04-18T18:14:15.760Z,90.00
2023-04-18T18:16:43.041Z,90.00
2023-04-18T18:19:10.510Z,90.10
2023-04-18T18:21:37.472Z,90.10
2023-04-18T18:24:04.710Z,90.10
2023-04-18T18:26:33.127Z,90.10
2023-04-18T18:29:00.478Z,90.10
2023-04-18T18:31:27.620Z,90.10
2023-04-18T18:34:04.262Z,90.10
2023-04-18T18:36:36.478Z,90.10
2023-04-18T18:39:06.943Z,90.20
2023-04-18T18:41:38.537Z,90.20
2023-04-18T18:44:06.087Z,90.30
2023-04-18T18:46:33.898Z,90.30
2023-04-18T18:49:00.843Z,90.40
2023-04-18T18:51:28.793Z,90.50
2023-04-18T18:53:58.427Z,90.50
2023-04-18T18:56:44.811Z,90.60
2023-04-18T18:59:20.112Z,90.60
2023-04-18T19:01:54.626Z,90.70
2023-04-18T19:04:24.845Z,90.80
2023-04-18T19:06:59.638Z,90.90
2023-04-18T19:09:26.733Z,90.90
2023-04-18T19:11:57.377Z,91.00
2023-04-18T19:14:24.696Z,91.10
2023-04-18T19:16:54.538Z,91.10
2023-04-18T19:19:33.326Z,91.20
2023-04-18T19:22:01.344Z,91.20
2023-04-18T19:24:29.237Z,91.30
2023-04-18T19:29:38.215Z,91.40
2023-04-18T19:32:06.529Z,91.50
2023-04-18T19:34:33.723Z,91.50
2023-04-18T19:37:01.595Z,91.50
2023-04-18T19:39:31.863Z,91.70
2023-04-18T19:41:59.032Z,91.70
2023-04-18T19:44:26.147Z,91.80
2023-04-18T19:46:58.163Z,91.80
2023-04-18T19:49:46.609Z,91.90
2023-04-18T19:52:14.493Z,92.00
2023-04-18T19:54:45.952Z,92.00
2023-04-18T20:00:08.754Z,92.10
2023-04-18T20:02:48.197Z,92.20
2023-04-18T20:05:16.007Z,92.30
2023-04-18T20:07:44.956Z,92.40
2023-04-18T20:10:12.940Z,92.40
2023-04-18T20:12:42.887Z,92.50
2023-04-18T20:15:13.095Z,92.50
2023-04-18T20:17:40.392Z,92.50
2023-04-18T20:20:09.540Z,92.50
2023-04-18T20:22:38.242Z,92.50
2023-04-18T20:25:09.029Z,92.60
2023-04-18T20:27:39.238Z,92.60
2023-04-18T20:30:07.260Z,92.60
2023-04-18T20:32:35.086Z,92.60
2023-04-18T20:35:09.120Z,92.60
2023-04-18T20:37:39.377Z,92.60
2023-04-18T20:40:12.323Z,92.60
2023-04-18T20:42:39.681Z,92.60
2023-04-18T20:45:11.344Z,92.60
2023-04-18T20:47:42.510Z,92.60
2023-04-18T20:50:20.689Z,92.60
2023-04-18T20:52:48.081Z,92.60
2023-04-18T20:55:17.131Z,92.60
2023-04-18T20:57:45.721Z,92.60
2023-04-18T21:00:14.263Z,92.60
2023-04-18T21:02:45.620Z,92.60
2023-04-18T21:05:12.851Z,92.70
2023-04-18T21:07:41.094Z,92.60
2023-04-18T21:10:21.882Z,92.60
2023-04-18T21:12:50.453Z,92.60
2023-04-18T21:15:22.907Z,92.70
2023-04-18T21:17:53.495Z,92.70
2023-04-18T21:20:23.309Z,92.70
2023-04-18T21:25:37.325Z,92.70
2023-04-18T21:28:08.876Z,92.80
2023-04-18T21:30:36.797Z,92.80
2023-04-18T21:33:04.425Z,92.80
2023-04-18T21:35:33.194Z,92.80
2023-04-18T21:38:00.200Z,92.80
2023-04-18T21:40:27.272Z,92.90
2023-04-18T21:42:57.407Z,92.90
2023-04-18T21:45:36.289Z,92.90
2023-04-18T21:48:05.123Z,93.00
2023-04-18T21:50:37.143Z,93.00
2023-04-18T21:53:05.187Z,93.00
2023-04-18T21:55:35.993Z,93.10
2023-04-18T21:58:03.238Z,93.10
2023-04-18T22:00:38.507Z,93.10
2023-04-18T22:03:09.522Z,93.10
2023-04-18T22:05:40.130Z,93.40
2023-04-18T22:08:13.047Z,93.20
2023-04-18T22:10:42.803Z,93.20
2023-04-18T22:13:11.547Z,93.20
2023-04-18T22:15:54.564Z,93.30
2023-04-18T22:18:22.444Z,93.30
2023-04-18T22:20:54.160Z,93.30
2023-04-18T22:23:22.129Z,93.40
2023-04-18T22:26:01.456Z,93.40
2023-04-18T22:28:28.950Z,93.40
2023-04-18T22:30:59.197Z,93.40
2023-04-18T22:33:29.948Z,93.50
2023-04-18T22:36:03.373Z,93.50
2023-04-18T22:38:32.698Z,93.50
2023-04-18T22:41:08.358Z,93.50
2023-04-18T22:44:09.852Z,93.60
2023-04-18T22:46:39.460Z,93.60
2023-04-18T22:49:27.478Z,93.60
2023-04-18T22:52:14.428Z,93.60
2023-04-18T22:55:02.870Z,93.70
2023-04-18T22:57:47.107Z,93.70
2023-04-18T23:04:56.840Z,93.80
2023-04-18T23:07:26.212Z,93.90
2023-04-18T23:09:53.386Z,93.90
2023-04-18T23:12:27.156Z,94.00
2023-04-18T23:14:54.834Z,94.00
2023-04-18T23:17:25.314Z,94.10
2023-04-18T23:19:53.100Z,94.10
2023-04-18T23:22:20.965Z,94.20
2023-04-18T23:24:53.762Z,94.20
2023-04-18T23:27:21.562Z,94.30
2023-04-18T23:29:51.843Z,94.30
2023-04-18T23:32:20.917Z,94.40
2023-04-18T23:34:48.147Z,94.50
2023-04-18T23:39:59.998Z,94.50
2023-04-18T23:42:37.696Z,94.60
2023-04-18T23:45:09.046Z,94.60
2023-04-18T23:47:36.729Z,94.60
2023-04-18T23:50:04.113Z,94.70
2023-04-18T23:52:41.466Z,94.70
2023-04-18T23:55:38.382Z,94.80
2023-04-18T23:58:07.730Z,94.80
